Time;durP1;ratioP1;P1;durP2;ratioP2;P2;SDS_P1;SDS_P2;PMS_P1;PMS_P2;Temp;Humidity;BMP_temperature;BMP_pressure;BME280_temperature;BME280_humidity;BME280_pressure;Samples;Min_cycle;Max_cycle;Signal;HPM_P1;HPM_P2
2021/12/06 00:01:31;;;;;;;16.25;3.03;;;2.30;99.90;;;;;;4992196;28;20054;-83
2021/12/06 00:04:14;;;;;;;4.65;2.58;;;2.30;99.90;;;;;;5012291;28;20046;-83
2021/12/06 00:06:43;;;;;;;6.50;2.00;;;2.30;99.90;;;;;;4995980;28;20490;-82
2021/12/06 00:09:13;;;;;;;6.43;4.50;;;2.30;99.90;;;;;;5012162;28;20486;-81
2021/12/06 00:11:39;;;;;;;2.45;1.65;;;2.30;99.90;;;;;;5013636;28;20447;-82
2021/12/06 00:14:05;;;;;;;3.67;3.38;;;2.30;99.90;;;;;;5013577;28;20129;-81
2021/12/06 00:16:32;;;;;;;11.73;4.07;;;2.30;99.90;;;;;;5012184;28;20108;-82
2021/12/06 00:18:58;;;;;;;6.65;5.95;;;2.30;99.90;;;;;;5011849;28;20132;-82
2021/12/06 00:21:25;;;;;;;4.13;1.63;;;2.30;99.90;;;;;;5024033;28;20439;-82
2021/12/06 00:23:51;;;;;;;6.18;4.10;;;2.40;99.90;;;;;;5015255;28;20080;-82
2021/12/06 00:26:17;;;;;;;2.10;1.60;;;2.30;99.90;;;;;;5031730;28;20132;-82
2021/12/06 00:28:45;;;;;;;12.98;3.10;;;2.30;99.90;;;;;;5032110;28;20057;-82
2021/12/06 00:31:12;;;;;;;2.95;2.75;;;2.30;99.90;;;;;;5031900;28;20112;-83
2021/12/06 00:33:39;;;;;;;5.45;4.18;;;2.30;99.90;;;;;;5031679;28;20071;-82
2021/12/06 00:36:07;;;;;;;2.38;1.23;;;2.30;99.90;;;;;;5014943;28;20046;-82
2021/12/06 00:38:35;;;;;;;4.88;4.47;;;2.30;99.90;;;;;;5031726;28;20375;-82
2021/12/06 00:41:02;;;;;;;3.03;2.42;;;2.30;99.90;;;;;;5031340;28;20056;-82
2021/12/06 00:43:28;;;;;;;5.68;2.05;;;2.30;99.90;;;;;;5031681;28;20045;-82
2021/12/06 00:45:54;;;;;;;3.28;3.05;;;2.30;99.90;;;;;;5031340;28;20049;-82
2021/12/06 00:48:20;;;;;;;2.85;2.75;;;2.30;99.90;;;;;;5031275;28;20049;-83
2021/12/06 00:50:46;;;;;;;4.93;2.08;;;2.30;99.90;;;;;;5031358;28;20130;-83
2021/12/06 00:53:12;;;;;;;3.38;1.50;;;2.30;99.90;;;;;;5031684;28;20087;-83
2021/12/06 00:55:39;;;;;;;11.10;4.35;;;2.30;99.90;;;;;;5031307;28;20053;-83
2021/12/06 00:58:04;;;;;;;3.80;2.40;;;2.30;99.90;;;;;;5031197;28;20390;-82
2021/12/06 01:00:36;;;;;;;12.48;3.03;;;2.20;99.90;;;;;;5030983;28;20041;-83
2021/12/06 01:03:10;;;;;;;1.05;1.05;;;2.30;99.90;;;;;;5030967;28;20060;-84
2021/12/06 01:05:37;;;;;;;4.38;4.05;;;2.30;99.90;;;;;;5031282;28;20518;-83
2021/12/06 01:08:03;;;;;;;7.03;3.55;;;2.30;99.90;;;;;;5014645;28;20502;-83
2021/12/06 01:10:29;;;;;;;7.75;3.47;;;2.30;99.90;;;;;;5031249;28;20045;-83
2021/12/06 01:12:56;;;;;;;3.53;3.05;;;2.30;99.90;;;;;;5030979;28;20521;-83
2021/12/06 01:15:22;;;;;;;3.13;3.03;;;2.20;99.90;;;;;;5032473;28;20049;-82
2021/12/06 01:17:48;;;;;;;4.03;3.50;;;2.30;99.90;;;;;;5014491;28;20110;-82
2021/12/06 01:20:19;;;;;;;5.57;2.00;;;2.30;99.90;;;;;;5030507;28;20052;-84
2021/12/06 01:25:56;;;;;;;4.00;3.63;;;2.20;99.90;;;;;;5032694;28;20486;-83
2021/12/06 01:41:33;;;;;;;7.50;3.28;;;2.20;99.90;;;;;;4997346;28;20049;-82
2021/12/06 01:44:14;;;;;;;2.72;2.20;;;2.20;99.90;;;;;;4997780;28;20496;-82
2021/12/06 01:46:47;;;;;;;4.18;1.50;;;2.30;99.90;;;;;;4997467;28;20505;-82
2021/12/06 01:49:14;;;;;;;6.15;5.53;;;2.30;99.90;;;;;;4997507;28;20168;-83
2021/12/06 01:51:41;;;;;;;2.70;2.45;;;2.30;99.90;;;;;;4977858;28;20104;-82
2021/12/06 01:54:08;;;;;;;15.45;3.72;;;2.20;99.90;;;;;;4977764;28;20054;-82
2021/12/06 01:56:34;;;;;;;5.65;3.85;;;2.30;99.90;;;;;;4977941;28;20429;-82
2021/12/06 01:59:00;;;;;;;11.43;5.78;;;2.20;99.90;;;;;;4977677;28;20046;-82
2021/12/06 02:01:26;;;;;;;4.65;2.88;;;2.30;99.90;;;;;;4977538;28;20137;-82
2021/12/06 02:03:52;;;;;;;3.17;2.97;;;2.30;99.90;;;;;;4977994;28;20137;-82
2021/12/06 02:06:18;;;;;;;5.82;1.65;;;2.20;99.90;;;;;;4977210;28;20062;-82
2021/12/06 02:08:44;;;;;;;9.18;5.40;;;2.30;99.90;;;;;;4993820;28;20104;-83
2021/12/06 02:11:11;;;;;;;4.28;3.92;;;2.30;99.90;;;;;;4961521;28;20054;-82
2021/12/06 02:13:46;;;;;;;9.38;3.85;;;2.30;99.90;;;;;;5003133;28;20085;-82
2021/12/06 02:16:13;;;;;;;4.40;4.20;;;2.30;99.90;;;;;;5014860;28;20046;-82
2021/12/06 02:18:44;;;;;;;6.28;3.97;;;2.30;99.90;;;;;;5014170;28;20042;-82
2021/12/06 02:21:13;;;;;;;4.13;2.23;;;2.40;99.90;;;;;;5022961;28;20045;-82
2021/12/06 02:23:39;;;;;;;16.17;3.05;;;2.30;99.90;;;;;;5035082;28;20069;-82
2021/12/06 02:26:06;;;;;;;16.75;5.70;;;2.30;99.90;;;;;;5033749;28;20041;-82
2021/12/06 02:28:32;;;;;;;2.78;2.15;;;2.30;99.90;;;;;;5033671;28;20057;-82
2021/12/06 02:30:57;;;;;;;9.88;2.90;;;2.30;99.90;;;;;;5033627;28;20045;-82
2021/12/06 02:33:24;;;;;;;10.65;4.40;;;2.30;99.90;;;;;;5033700;28;20068;-82
2021/12/06 02:35:52;;;;;;;14.10;3.33;;;2.30;99.90;;;;;;5033568;28;20474;-83
2021/12/06 02:38:18;;;;;;;12.57;8.02;;;2.30;99.90;;;;;;5034851;28;20049;-82
2021/12/06 02:40:44;;;;;;;3.40;2.55;;;2.30;99.90;;;;;;5034929;28;20053;-82
2021/12/06 02:43:10;;;;;;;17.60;7.85;;;2.30;99.90;;;;;;5033226;28;20041;-82
2021/12/06 02:45:40;;;;;;;4.10;1.92;;;2.30;99.90;;;;;;5035134;28;20089;-82
2021/12/06 02:48:08;;;;;;;9.63;3.58;;;2.40;99.90;;;;;;5033735;28;20063;-82
2021/12/06 02:50:38;;;;;;;26.15;7.07;;;2.30;99.90;;;;;;5033434;28;20457;-83
2021/12/06 02:53:05;;;;;;;5.40;5.07;;;2.40;99.90;;;;;;5033223;28;20129;-82
2021/12/06 02:55:34;;;;;;;6.53;3.40;;;2.30;99.90;;;;;;5033214;28;20041;-82
2021/12/06 02:58:32;;;;;;;9.35;4.00;;;2.30;99.90;;;;;;5016693;28;20045;-82
2021/12/06 03:01:02;;;;;;;4.75;2.75;;;2.30;99.90;;;;;;5033039;28;20086;-81
2021/12/06 03:03:28;;;;;;;16.40;4.05;;;2.30;99.90;;;;;;5034303;28;20060;-82
2021/12/06 03:05:55;;;;;;;8.68;2.42;;;2.30;99.90;;;;;;5032959;28;20057;-82
2021/12/06 03:08:48;;;;;;;2.30;1.52;;;2.30;99.90;;;;;;5032761;28;20046;-81
2021/12/06 03:11:27;;;;;;;7.28;3.65;;;2.30;99.90;;;;;;5033219;28;20045;-83
2021/12/06 03:13:54;;;;;;;11.75;5.15;;;2.30;99.90;;;;;;5032902;28;20049;-82
2021/12/06 03:16:20;;;;;;;2.42;2.17;;;2.40;99.90;;;;;;5032967;28;20592;-82
2021/12/06 03:18:47;;;;;;;3.70;3.47;;;2.30;99.90;;;;;;5032686;28;20095;-82
2021/12/06 03:21:15;;;;;;;4.88;1.70;;;2.30;99.90;;;;;;5012856;28;20057;-82
2021/12/06 03:23:40;;;;;;;6.60;3.72;;;2.40;99.90;;;;;;5013641;28;20045;-83
2021/12/06 03:26:07;;;;;;;8.07;4.97;;;2.40;99.90;;;;;;5012991;28;20053;-82
2021/12/06 03:28:42;;;;;;;1.95;1.55;;;2.30;99.90;;;;;;5012825;28;20049;-82
2021/12/06 03:31:08;;;;;;;15.63;3.13;;;2.40;99.90;;;;;;5012940;28;20041;-82
2021/12/06 03:33:36;;;;;;;2.47;2.20;;;2.40;99.90;;;;;;5029254;28;20103;-83
2021/12/06 03:36:07;;;;;;;3.85;2.80;;;2.30;99.90;;;;;;5012680;28;20136;-82
2021/12/06 03:38:34;;;;;;;14.65;4.13;;;2.30;99.90;;;;;;5013822;28;20042;-82
2021/12/06 03:41:00;;;;;;;3.95;3.22;;;2.30;99.90;;;;;;5012396;28;20061;-81
2021/12/06 03:43:25;;;;;;;5.05;3.85;;;2.30;99.90;;;;;;5012785;28;20034;-82
2021/12/06 03:45:52;;;;;;;8.27;3.78;;;2.40;99.90;;;;;;5012763;28;20096;-82
2021/12/06 03:48:17;;;;;;;6.18;4.07;;;2.40;99.90;;;;;;5012990;28;20115;-82
2021/12/06 03:50:44;;;;;;;6.15;5.13;;;2.30;99.90;;;;;;5013157;28;20494;-82
2021/12/06 03:53:09;;;;;;;4.57;4.22;;;2.30;99.90;;;;;;5012627;28;20038;-83
2021/12/06 03:55:36;;;;;;;2.15;2.08;;;2.30;99.90;;;;;;5012220;28;20128;-83
2021/12/06 03:58:02;;;;;;;10.30;4.57;;;2.30;99.90;;;;;;5012566;28;20132;-82
2021/12/06 04:00:27;;;;;;;15.45;5.90;;;2.30;99.90;;;;;;5012452;28;20081;-82
2021/12/06 04:02:54;;;;;;;4.28;3.60;;;2.30;99.90;;;;;;5012542;28;20469;-82
2021/12/06 04:05:20;;;;;;;9.27;3.45;;;2.30;99.90;;;;;;5012611;28;20052;-82
2021/12/06 04:07:46;;;;;;;3.45;3.05;;;2.30;99.90;;;;;;5012875;28;20372;-82
2021/12/06 04:10:12;;;;;;;9.13;4.32;;;2.30;99.90;;;;;;5012507;28;20067;-82
2021/12/06 04:12:38;;;;;;;2.60;2.55;;;2.30;99.90;;;;;;5012407;28;20046;-82
2021/12/06 04:15:07;;;;;;;2.42;2.30;;;2.30;99.90;;;;;;5012391;28;20068;-82
2021/12/06 04:17:34;;;;;;;7.00;3.63;;;2.30;99.90;;;;;;5012343;28;20048;-82
2021/12/06 04:20:00;;;;;;;14.55;5.88;;;2.20;99.90;;;;;;5012127;28;20046;-82
2021/12/06 04:22:26;;;;;;;10.82;4.20;;;2.30;99.90;;;;;;5013471;28;20053;-82
2021/12/06 04:24:51;;;;;;;4.22;3.88;;;2.30;99.90;;;;;;5012299;28;20088;-83
2021/12/06 04:27:19;;;;;;;10.20;4.35;;;2.30;99.90;;;;;;5012250;28;20441;-82
2021/12/06 04:29:50;;;;;;;9.32;2.92;;;2.30;99.90;;;;;;5012489;28;20368;-82
2021/12/06 04:32:16;;;;;;;3.83;1.58;;;2.30;99.90;;;;;;5012327;28;20055;-82
2021/12/06 04:34:42;;;;;;;3.60;1.75;;;2.30;99.90;;;;;;5012348;28;20050;-82
2021/12/06 04:37:08;;;;;;;6.80;6.28;;;2.30;99.90;;;;;;5011929;28;20057;-82
2021/12/06 04:39:35;;;;;;;6.95;3.78;;;2.30;99.90;;;;;;5011896;28;20053;-82
2021/12/06 04:42:01;;;;;;;2.03;1.92;;;2.30;99.90;;;;;;5011989;28;20049;-82
2021/12/06 04:44:27;;;;;;;5.25;4.78;;;2.30;99.90;;;;;;5011772;28;20058;-82
2021/12/06 04:46:53;;;;;;;3.08;2.88;;;2.30;99.90;;;;;;5011942;28;20050;-82
2021/12/06 04:49:20;;;;;;;7.70;4.20;;;2.30;99.90;;;;;;5011813;28;20046;-83
2021/12/06 04:51:50;;;;;;;15.90;8.63;;;2.30;99.90;;;;;;5011812;28;20053;-80
2021/12/06 04:54:17;;;;;;;5.95;2.75;;;2.30;99.90;;;;;;5011958;28;20500;-82
2021/12/06 04:56:51;;;;;;;2.83;1.52;;;2.30;99.90;;;;;;5011823;28;20049;-82
2021/12/06 04:59:39;;;;;;;1.52;1.40;;;2.30;99.90;;;;;;5011860;28;20521;-82
2021/12/06 05:02:12;;;;;;;5.53;4.72;;;2.40;99.90;;;;;;5011750;28;20045;-82
2021/12/06 05:04:47;;;;;;;3.17;2.20;;;2.40;99.90;;;;;;5011593;28;20402;-82
2021/12/06 05:07:39;;;;;;;14.80;5.13;;;2.30;99.90;;;;;;5011787;28;20435;-82
2021/12/06 05:10:07;;;;;;;3.10;2.95;;;2.30;99.90;;;;;;5015875;28;20483;-82
2021/12/06 05:12:33;;;;;;;6.35;5.72;;;2.30;99.90;;;;;;5015648;28;20034;-82
2021/12/06 05:14:59;;;;;;;9.45;8.63;;;2.30;99.90;;;;;;5015908;28;20394;-82
2021/12/06 05:17:26;;;;;;;15.05;3.15;;;2.30;99.90;;;;;;5015585;28;20049;-82
2021/12/06 05:19:52;;;;;;;7.97;7.38;;;2.30;99.90;;;;;;5015680;28;20065;-82
2021/12/06 05:22:18;;;;;;;9.20;2.35;;;2.40;99.90;;;;;;5015462;28;20520;-83
2021/12/06 05:24:44;;;;;;;30.17;3.65;;;2.40;99.90;;;;;;5015483;28;20042;-82
2021/12/06 05:27:10;;;;;;;7.22;4.15;;;2.40;99.90;;;;;;5015533;28;20200;-82
2021/12/06 05:29:36;;;;;;;1.45;1.45;;;2.30;99.90;;;;;;5016583;28;20046;-82
2021/12/06 05:32:02;;;;;;;9.70;4.60;;;2.40;99.90;;;;;;5015526;28;20506;-82
2021/12/06 05:34:41;;;;;;;6.32;3.78;;;2.40;99.90;;;;;;5015606;28;20126;-82
2021/12/06 05:37:10;;;;;;;9.60;5.60;;;2.30;99.90;;;;;;5015383;28;20111;-82
2021/12/06 05:39:37;;;;;;;5.45;5.15;;;2.40;99.90;;;;;;5015364;28;20115;-82
2021/12/06 05:42:07;;;;;;;9.85;3.70;;;2.40;99.90;;;;;;5015293;28;20541;-82
2021/12/06 05:44:33;;;;;;;4.43;4.07;;;2.40;99.90;;;;;;5015124;28;20498;-82
2021/12/06 05:47:00;;;;;;;8.35;3.58;;;2.40;99.90;;;;;;5014956;28;20096;-82
2021/12/06 05:49:26;;;;;;;7.38;4.45;;;2.40;99.90;;;;;;5016306;28;20365;-84
2021/12/06 05:51:52;;;;;;;30.85;5.10;;;2.40;99.90;;;;;;5015294;28;20406;-83
2021/12/06 05:54:19;;;;;;;3.55;3.25;;;2.40;99.90;;;;;;5015152;28;20048;-83
2021/12/06 05:56:45;;;;;;;2.33;2.05;;;2.40;99.90;;;;;;5014882;28;20128;-83
2021/12/06 05:59:12;;;;;;;4.32;3.35;;;2.40;99.90;;;;;;4998480;28;20053;-81
2021/12/06 06:01:38;;;;;;;17.17;4.90;;;2.40;99.90;;;;;;5016013;28;20050;-81
2021/12/06 06:04:03;;;;;;;6.90;4.22;;;2.40;99.90;;;;;;5015051;28;20410;-81
2021/12/06 06:06:31;;;;;;;9.73;5.15;;;2.50;99.90;;;;;;5014421;28;20065;-82
2021/12/06 06:08:57;;;;;;;13.73;5.78;;;2.40;99.90;;;;;;5014873;28;20045;-82
2021/12/06 06:11:24;;;;;;;10.75;5.53;;;2.40;99.90;;;;;;5015925;28;20041;-81
2021/12/06 06:13:50;;;;;;;8.77;3.97;;;2.40;99.90;;;;;;5014820;28;20042;-81
2021/12/06 06:16:19;;;;;;;5.50;3.58;;;2.40;99.90;;;;;;5014449;28;20050;-83
2021/12/06 06:18:48;;;;;;;7.85;5.95;;;2.40;99.90;;;;;;5014199;28;20060;-84
2021/12/06 06:21:14;;;;;;;13.32;2.17;;;2.40;99.90;;;;;;5014382;28;20088;-83
2021/12/06 06:23:39;;;;;;;10.52;3.50;;;2.40;99.90;;;;;;5014691;28;20069;-84
2021/12/06 06:26:05;;;;;;;2.35;2.00;;;2.40;99.90;;;;;;5014197;28;20679;-83
2021/12/06 06:28:31;;;;;;;3.97;3.58;;;2.40;99.90;;;;;;5015698;28;20109;-83
2021/12/06 06:30:57;;;;;;;1.25;1.23;;;2.40;99.90;;;;;;5014226;28;20058;-83
2021/12/06 06:33:22;;;;;;;12.60;4.13;;;2.40;99.90;;;;;;5014414;28;20125;-83
2021/12/06 06:35:48;;;;;;;7.05;3.50;;;2.40;99.90;;;;;;5014208;28;20139;-84
2021/12/06 06:38:14;;;;;;;6.35;2.75;;;2.40;99.90;;;;;;5014134;28;20050;-84
2021/12/06 06:40:40;;;;;;;13.02;4.18;;;2.40;99.90;;;;;;5014003;28;20038;-83
2021/12/06 06:43:06;;;;;;;4.28;3.97;;;2.40;99.90;;;;;;5015569;28;20046;-84
2021/12/06 06:45:32;;;;;;;9.10;2.97;;;2.40;99.90;;;;;;5015216;28;20455;-84
2021/12/06 06:47:58;;;;;;;38.40;7.50;;;2.50;99.90;;;;;;5015242;28;20140;-84
2021/12/06 06:50:25;;;;;;;7.93;3.00;;;2.40;99.90;;;;;;5014075;28;20407;-84
2021/12/06 06:52:51;;;;;;;2.63;2.17;;;2.40;99.90;;;;;;5013889;28;20054;-83
2021/12/06 06:55:18;;;;;;;19.77;4.88;;;2.40;99.90;;;;;;5013880;28;20069;-83
2021/12/06 06:57:45;;;;;;;4.32;4.03;;;2.30;99.90;;;;;;5013592;28;20056;-84
2021/12/06 07:00:27;;;;;;;8.30;4.03;;;2.40;99.90;;;;;;5013588;28;20046;-84
2021/12/06 07:02:53;;;;;;;13.40;10.52;;;2.40;99.90;;;;;;5013669;28;20124;-85
2021/12/06 07:05:20;;;;;;;3.05;2.83;;;2.30;99.90;;;;;;5014513;28;20080;-85
2021/12/06 07:07:45;;;;;;;4.90;3.85;;;2.30;99.90;;;;;;5014554;28;20132;-85
2021/12/06 07:10:12;;;;;;;8.45;3.88;;;2.40;99.90;;;;;;5013589;28;20483;-84
2021/12/06 07:12:48;;;;;;;3.35;3.05;;;2.30;99.90;;;;;;5013438;28;20129;-81
2021/12/06 07:15:17;;;;;;;7.10;2.78;;;2.30;99.90;;;;;;5013443;28;20049;-80
2021/12/06 07:17:44;;;;;;;13.65;6.85;;;2.30;99.90;;;;;;5013455;28;20096;-82
2021/12/06 07:20:12;;;;;;;6.53;5.93;;;2.30;99.90;;;;;;5013137;28;20049;-81
2021/12/06 07:22:38;;;;;;;3.22;2.80;;;2.40;99.90;;;;;;5013237;28;20132;-81
2021/12/06 07:25:05;;;;;;;7.13;3.13;;;2.30;99.90;;;;;;5014565;28;20122;-81
2021/12/06 07:27:31;;;;;;;10.02;5.05;;;2.40;99.90;;;;;;5013434;28;20045;-81
2021/12/06 07:29:57;;;;;;;5.50;5.05;;;2.40;99.90;;;;;;5012376;28;20054;-81
2021/12/06 07:32:23;;;;;;;4.25;2.70;;;2.40;99.90;;;;;;5012842;28;20049;-81
2021/12/06 07:34:50;;;;;;;14.95;2.45;;;2.40;99.90;;;;;;5012997;28;20398;-81
2021/12/06 07:37:16;;;;;;;4.43;4.13;;;2.40;99.90;;;;;;5012967;28;20479;-81
2021/12/06 07:39:42;;;;;;;2.40;2.22;;;2.40;99.90;;;;;;5013169;28;20103;-81
2021/12/06 07:42:11;;;;;;;13.73;2.60;;;2.40;99.90;;;;;;5013149;28;20438;-81
2021/12/06 07:44:37;;;;;;;2.65;2.50;;;2.50;99.90;;;;;;5012870;28;20054;-81
2021/12/06 07:47:04;;;;;;;13.90;4.80;;;2.50;99.90;;;;;;5012752;28;20124;-81
2021/12/06 07:49:29;;;;;;;5.40;3.05;;;2.50;99.90;;;;;;5012745;28;20038;-81
2021/12/06 07:51:55;;;;;;;8.95;5.07;;;2.50;99.90;;;;;;5012745;28;20450;-81
2021/12/06 07:54:21;;;;;;;7.63;1.92;;;2.50;99.90;;;;;;5012636;28;20046;-81
2021/12/06 07:56:47;;;;;;;6.63;2.85;;;2.50;99.90;;;;;;5012643;28;20046;-81
2021/12/06 07:59:13;;;;;;;1.95;1.95;;;2.50;99.90;;;;;;5012877;28;20496;-81
2021/12/06 08:01:39;;;;;;;8.10;1.92;;;2.40;99.90;;;;;;5012510;28;20060;-81
2021/12/06 08:04:05;;;;;;;5.75;2.55;;;2.40;99.90;;;;;;5013910;28;20121;-80
2021/12/06 08:06:31;;;;;;;5.75;2.17;;;2.40;99.90;;;;;;5012319;28;20099;-81
2021/12/06 08:08:56;;;;;;;1.98;1.70;;;2.40;99.90;;;;;;5012758;28;20478;-81
2021/12/06 08:11:22;;;;;;;8.05;5.35;;;2.40;99.90;;;;;;5013659;28;20106;-81
2021/12/06 08:13:53;;;;;;;7.32;4.93;;;2.40;99.90;;;;;;5012270;28;20041;-81
2021/12/06 08:16:22;;;;;;;5.47;4.13;;;2.40;99.90;;;;;;5012636;28;20054;-81
2021/12/06 08:18:49;;;;;;;5.13;3.80;;;2.50;99.90;;;;;;5012197;28;20045;-80
2021/12/06 08:21:16;;;;;;;9.05;2.33;;;2.50;99.90;;;;;;5012274;28;20096;-81
2021/12/06 08:23:43;;;;;;;3.88;2.40;;;2.50;99.90;;;;;;5012568;28;20042;-80
2021/12/06 08:26:10;;;;;;;14.38;3.83;;;2.50;99.90;;;;;;5012014;28;20058;-80
2021/12/06 08:28:37;;;;;;;7.15;4.90;;;2.50;99.90;;;;;;5012319;28;20447;-80
2021/12/06 08:31:05;;;;;;;4.53;3.67;;;2.50;99.90;;;;;;5013243;28;20042;-80
2021/12/06 08:33:31;;;;;;;2.95;2.72;;;2.50;99.90;;;;;;5013562;28;20402;-80
2021/12/06 08:36:01;;;;;;;13.43;3.60;;;2.50;99.90;;;;;;5012425;28;20054;-82
2021/12/06 08:38:29;;;;;;;2.33;2.22;;;2.60;99.90;;;;;;5012216;28;20054;-80
2021/12/06 08:40:57;;;;;;;3.40;2.92;;;2.60;99.90;;;;;;5011666;28;20053;-80
2021/12/06 08:43:23;;;;;;;16.80;4.53;;;2.60;99.90;;;;;;5013126;28;20068;-80
2021/12/06 08:45:57;;;;;;;3.45;3.13;;;2.60;99.90;;;;;;5012037;28;20132;-80
2021/12/06 08:48:25;;;;;;;3.88;3.58;;;2.60;99.90;;;;;;5013219;28;20038;-80
2021/12/06 08:50:54;;;;;;;4.53;2.05;;;2.60;99.90;;;;;;5011781;28;20048;-80
2021/12/06 08:53:20;;;;;;;5.80;5.35;;;2.60;99.90;;;;;;5011659;28;20120;-80
2021/12/06 08:55:45;;;;;;;9.77;3.35;;;2.60;99.90;;;;;;5013063;28;20120;-80
2021/12/06 08:58:11;;;;;;;3.83;3.30;;;2.60;99.90;;;;;;5011987;28;20042;-80
2021/12/06 09:00:37;;;;;;;13.80;3.20;;;2.60;99.90;;;;;;5012793;28;20045;-80
2021/12/06 09:03:04;;;;;;;7.43;1.98;;;2.60;99.90;;;;;;5012993;28;20046;-80
2021/12/06 09:05:35;;;;;;;16.27;3.72;;;2.60;99.90;;;;;;5011638;28;20050;-80
2021/12/06 09:08:01;;;;;;;2.70;2.60;;;2.60;99.90;;;;;;5011551;28;20510;-80
2021/12/06 09:10:26;;;;;;;2.13;1.92;;;2.50;99.90;;;;;;5011561;28;20093;-80
2021/12/06 09:12:53;;;;;;;3.90;3.03;;;2.60;99.90;;;;;;5011538;28;20038;-80
2021/12/06 09:15:20;;;;;;;2.30;1.52;;;2.60;99.90;;;;;;5011490;28;20042;-80
2021/12/06 09:17:47;;;;;;;2.58;1.88;;;2.60;99.90;;;;;;5012908;28;20050;-80
2021/12/06 09:20:15;;;;;;;4.57;3.60;;;2.60;99.90;;;;;;5011783;28;20100;-80
2021/12/06 09:22:42;;;;;;;3.40;3.10;;;2.70;99.90;;;;;;5011543;28;20042;-80
2021/12/06 09:25:09;;;;;;;14.93;5.85;;;2.70;99.90;;;;;;5012612;28;20050;-80
2021/12/06 09:27:36;;;;;;;10.35;2.17;;;2.60;99.90;;;;;;5011365;28;20045;-80
2021/12/06 09:30:04;;;;;;;5.28;4.82;;;2.70;99.90;;;;;;5012789;28;20077;-80
2021/12/06 09:32:30;;;;;;;2.10;1.95;;;2.70;99.90;;;;;;5011547;28;20042;-80
2021/12/06 09:34:58;;;;;;;2.33;1.88;;;2.70;99.90;;;;;;5012702;28;20041;-80
2021/12/06 09:37:24;;;;;;;8.30;3.47;;;2.70;99.90;;;;;;5011665;28;20053;-80
2021/12/06 09:39:50;;;;;;;13.25;3.67;;;2.70;99.90;;;;;;5011146;28;20042;-80
2021/12/06 09:42:18;;;;;;;4.30;4.10;;;2.70;99.90;;;;;;5011397;28;20486;-80
2021/12/06 09:44:45;;;;;;;6.25;3.85;;;2.70;99.90;;;;;;5012892;28;20416;-80
2021/12/06 09:47:12;;;;;;;17.02;3.80;;;2.80;99.90;;;;;;5011638;28;20045;-81
2021/12/06 09:49:38;;;;;;;5.47;2.47;;;2.80;99.90;;;;;;5011360;28;20050;-80
2021/12/06 09:52:06;;;;;;;3.50;3.17;;;2.80;99.90;;;;;;5011322;28;20049;-80
2021/12/06 09:54:35;;;;;;;2.10;1.83;;;2.80;99.90;;;;;;5013484;28;20050;-81
2021/12/06 09:57:03;;;;;;;0.85;0.70;;;2.80;99.90;;;;;;5014843;28;20048;-80
2021/12/06 09:59:30;;;;;;;5.82;3.38;;;2.80;99.90;;;;;;5016160;28;20513;-80
2021/12/06 10:02:03;;;;;;;15.50;8.43;;;2.80;99.90;;;;;;5016001;28;20555;-81
2021/12/06 10:04:34;;;;;;;19.58;4.50;;;2.80;99.90;;;;;;5014668;28;20049;-80
2021/12/06 10:07:00;;;;;;;4.15;3.90;;;2.90;99.90;;;;;;5014586;28;20065;-80
2021/12/06 10:09:27;;;;;;;0.80;0.80;;;2.90;99.90;;;;;;5014512;28;20077;-81
2021/12/06 10:11:57;;;;;;;3.22;2.53;;;2.90;99.90;;;;;;5014490;28;20486;-80
2021/12/06 10:14:23;;;;;;;5.60;2.15;;;2.90;99.90;;;;;;5014778;28;20050;-81
2021/12/06 10:16:49;;;;;;;7.07;3.63;;;2.90;99.90;;;;;;5014382;28;20045;-80
2021/12/06 10:19:15;;;;;;;2.00;1.90;;;2.90;99.90;;;;;;5014879;28;20046;-80
2021/12/06 10:21:43;;;;;;;4.30;2.80;;;2.90;99.90;;;;;;5014540;28;20108;-81
2021/12/06 10:24:16;;;;;;;8.07;4.85;;;2.90;99.90;;;;;;5014262;28;20046;-80
2021/12/06 10:26:43;;;;;;;1.88;1.15;;;2.90;99.90;;;;;;5014337;28;20053;-80
2021/12/06 10:29:19;;;;;;;5.15;3.65;;;2.90;99.90;;;;;;5014270;28;20045;-80
2021/12/06 10:31:47;;;;;;;2.42;2.33;;;2.90;99.90;;;;;;5014203;28;20049;-81
2021/12/06 10:34:19;;;;;;;7.97;3.08;;;2.90;99.90;;;;;;5015660;28;20101;-80
2021/12/06 10:36:45;;;;;;;2.88;2.72;;;2.90;99.90;;;;;;5014108;28;20070;-80
2021/12/06 10:39:11;;;;;;;2.58;2.47;;;2.90;99.90;;;;;;5014074;28;20442;-80
2021/12/06 10:41:39;;;;;;;4.47;3.20;;;2.90;99.90;;;;;;5013923;28;20046;-80
2021/12/06 10:44:09;;;;;;;4.95;2.75;;;2.90;99.90;;;;;;5014138;28;20432;-80
2021/12/06 10:46:38;;;;;;;4.40;4.00;;;3.00;99.90;;;;;;5013953;28;20042;-81
2021/12/06 10:49:07;;;;;;;10.63;4.30;;;3.00;99.90;;;;;;5013926;28;20057;-81
2021/12/06 10:51:33;;;;;;;10.95;5.90;;;3.00;99.90;;;;;;5013804;28;20050;-81
2021/12/06 10:54:08;;;;;;;12.55;3.35;;;3.00;99.90;;;;;;5013664;28;20506;-81
2021/12/06 10:56:42;;;;;;;4.13;2.00;;;3.00;99.90;;;;;;5013615;28;20058;-80
2021/12/06 10:59:18;;;;;;;6.95;3.72;;;3.00;99.90;;;;;;5013869;28;20388;-80
2021/12/06 11:01:45;;;;;;;0.68;0.68;;;3.10;99.90;;;;;;5014900;28;20050;-80
2021/12/06 11:04:13;;;;;;;16.67;5.65;;;3.10;99.90;;;;;;5013514;28;20096;-80
2021/12/06 11:06:44;;;;;;;2.90;2.55;;;3.10;99.90;;;;;;5013422;28;20054;-80
2021/12/06 11:09:12;;;;;;;1.60;1.50;;;3.10;99.90;;;;;;5013355;28;20062;-80
2021/12/06 11:11:41;;;;;;;2.72;2.38;;;3.20;99.90;;;;;;5013284;28;20077;-80
2021/12/06 11:14:13;;;;;;;3.55;3.05;;;3.20;99.90;;;;;;5014889;28;20053;-80
2021/12/06 11:16:45;;;;;;;2.72;2.60;;;3.20;99.90;;;;;;5013381;28;20034;-82
2021/12/06 11:19:15;;;;;;;2.45;1.75;;;3.30;99.90;;;;;;5013326;28;20048;-82
2021/12/06 11:21:46;;;;;;;2.58;2.33;;;3.30;99.90;;;;;;5013332;28;20049;-82
2021/12/06 11:24:30;;;;;;;5.70;4.80;;;3.30;99.90;;;;;;5013329;28;20076;-83
2021/12/06 11:27:03;;;;;;;8.63;7.72;;;3.30;99.90;;;;;;5013115;28;20132;-82
2021/12/06 11:29:35;;;;;;;15.20;5.85;;;3.20;99.90;;;;;;5013237;28;20049;-82
2021/12/06 11:32:04;;;;;;;4.43;3.00;;;3.20;99.90;;;;;;5014475;28;20088;-82
2021/12/06 11:34:36;;;;;;;4.22;1.70;;;3.20;99.90;;;;;;5014486;28;20050;-80
2021/12/06 11:37:04;;;;;;;1.58;0.45;;;3.30;99.90;;;;;;5013324;28;20088;-80
2021/12/06 11:39:30;;;;;;;11.30;6.05;;;3.30;99.90;;;;;;5013157;28;20061;-81
2021/12/06 11:41:58;;;;;;;1.75;1.60;;;3.30;99.90;;;;;;5014113;28;20057;-80
2021/12/06 11:44:26;;;;;;;10.75;1.95;;;3.30;99.90;;;;;;5012781;28;20095;-80
2021/12/06 11:47:02;;;;;;;3.15;2.85;;;3.30;99.90;;;;;;5012736;28;20053;-80
2021/12/06 11:49:36;;;;;;;5.35;2.40;;;3.30;99.90;;;;;;5012682;28;20048;-80
2021/12/06 11:52:04;;;;;;;6.45;4.85;;;3.30;99.90;;;;;;5014109;28;20049;-80
2021/12/06 11:54:43;;;;;;;2.83;1.35;;;3.30;99.90;;;;;;5013964;28;20041;-80
2021/12/06 11:57:30;;;;;;;3.33;3.08;;;3.30;99.90;;;;;;5012864;28;20490;-80
2021/12/06 12:00:13;;;;;;;1.92;1.75;;;3.40;99.90;;;;;;5012668;28;20092;-80
2021/12/06 12:02:52;;;;;;;2.50;2.40;;;3.30;99.90;;;;;;5013636;28;20081;-80
2021/12/06 12:05:29;;;;;;;5.15;4.72;;;3.40;99.90;;;;;;5012599;28;20084;-80
2021/12/06 12:08:05;;;;;;;7.93;5.22;;;3.40;99.90;;;;;;5012208;28;20104;-80
2021/12/06 12:10:34;;;;;;;5.35;1.95;;;3.50;99.90;;;;;;5012373;28;20064;-80
2021/12/06 12:13:00;;;;;;;4.20;2.70;;;3.50;99.90;;;;;;5012436;28;20537;-80
2021/12/06 12:15:26;;;;;;;6.32;2.35;;;3.50;99.90;;;;;;5012218;28;20479;-80
2021/12/06 12:17:52;;;;;;;3.05;1.67;;;3.60;99.90;;;;;;5012183;28;20435;-80
2021/12/06 12:20:23;;;;;;;5.22;4.93;;;3.60;99.90;;;;;;5012387;28;20096;-82
2021/12/06 12:22:55;;;;;;;4.70;4.30;;;3.70;99.90;;;;;;5012520;28;20046;-84
2021/12/06 12:25:29;;;;;;;7.78;4.13;;;3.60;99.90;;;;;;5012243;28;20104;-84
2021/12/06 12:30:40;;;;;;;0.93;0.93;;;3.70;99.90;;;;;;5012117;28;20049;-84
2021/12/06 12:33:08;;;;;;;0.77;0.77;;;3.70;99.90;;;;;;5012093;28;20056;-84
2021/12/06 12:35:38;;;;;;;13.20;5.28;;;3.70;99.90;;;;;;5012239;28;20498;-84
2021/12/06 12:38:04;;;;;;;4.60;1.63;;;3.80;99.90;;;;;;5028446;28;20053;-84
2021/12/06 12:40:42;;;;;;;1.83;1.73;;;3.70;99.90;;;;;;5013070;28;20103;-85
2021/12/06 12:43:11;;;;;;;1.48;1.15;;;3.80;99.90;;;;;;5013438;28;20046;-84
2021/12/06 12:45:41;;;;;;;2.65;2.08;;;3.80;99.90;;;;;;5012244;28;20089;-85
2021/12/06 12:48:08;;;;;;;4.07;2.30;;;3.80;99.90;;;;;;5012225;28;20050;-86
2021/12/06 12:50:34;;;;;;;6.55;4.35;;;3.70;99.90;;;;;;5012063;28;20049;-86
2021/12/06 12:53:09;;;;;;;32.45;4.45;;;3.70;99.90;;;;;;5011873;28;20053;-82
2021/12/06 12:55:49;;;;;;;2.08;1.58;;;3.70;99.90;;;;;;5011726;28;20050;-81
2021/12/06 12:58:17;;;;;;;2.05;1.00;;;3.70;99.90;;;;;;5011869;28;20107;-81
2021/12/06 13:00:56;;;;;;;4.43;2.17;;;3.70;99.90;;;;;;5013081;28;20056;-81
2021/12/06 13:03:43;;;;;;;6.38;1.75;;;3.70;99.90;;;;;;5011663;28;20050;-80
2021/12/06 13:06:22;;;;;;;8.00;4.15;;;3.70;99.90;;;;;;5011339;28;20560;-80
2021/12/06 13:09:26;;;;;;;5.57;2.65;;;3.70;99.90;;;;;;5011652;28;20053;-80
2021/12/06 13:12:11;;;;;;;2.75;2.28;;;3.70;99.90;;;;;;5011613;28;20077;-80
2021/12/06 13:14:45;;;;;;;3.72;3.47;;;3.70;99.90;;;;;;5011437;28;20095;-79
2021/12/06 13:17:22;;;;;;;8.95;3.03;;;3.70;99.90;;;;;;5012908;28;20380;-80
2021/12/06 13:20:06;;;;;;;3.88;2.72;;;3.70;99.90;;;;;;5012712;28;20050;-79
2021/12/06 13:22:32;;;;;;;5.65;3.70;;;3.80;99.90;;;;;;5011404;28;20053;-80